Time;durP1;ratioP1;P1;durP2;ratioP2;P2;SDS_P1;SDS_P2;PMS_P1;PMS_P2;Temp;Humidity;BMP_temperature;BMP_pressure;BME280_temperature;BME280_humidity;BME280_pressure;Samples;Min_cycle;Max_cycle;Signal;HPM_P1;HPM_P2
2021/12/25 00:02:01;;;;;;;11.32;5.05;;;;;;;10.05;51.37;96913.63;4924413;28;20039;-78
2021/12/25 00:04:47;;;;;;;9.50;5.20;;;;;;;9.95;51.77;96933.06;4921851;28;20074;-76
2021/12/25 00:07:36;;;;;;;6.35;3.80;;;;;;;10.02;51.84;96943.25;4878160;29;20063;-77
2021/12/25 00:10:05;;;;;;;7.07;3.90;;;;;;;9.98;51.96;96931.06;4851092;29;20409;-77
2021/12/25 00:12:36;;;;;;;8.65;5.15;;;;;;;10.10;51.84;96959.59;4872730;29;20044;-78
2021/12/25 00:15:10;;;;;;;8.63;4.88;;;;;;;10.00;51.77;96934.47;4817167;29;20042;-76
2021/12/25 00:17:35;;;;;;;19.08;8.02;;;;;;;10.05;52.29;96953.72;4825151;29;20054;-76
2021/12/25 00:20:02;;;;;;;22.38;10.13;;;;;;;10.38;51.71;96993.28;4797764;29;20133;-76
2021/12/25 00:22:27;;;;;;;24.95;11.23;;;;;;;10.37;52.19;96993.41;4815716;29;20076;-77
2021/12/25 00:24:56;;;;;;;13.45;7.20;;;;;;;10.47;51.75;96989.13;4823724;29;20116;-78
2021/12/25 00:32:54;;;;;;;3.30;2.25;;;;;;;10.76;49.97;96916.56;4807893;29;20057;-78
2021/12/25 00:35:27;;;;;;;6.07;2.40;;;;;;;11.19;49.11;96942.84;4807504;29;20044;-77
2021/12/25 00:37:52;;;;;;;;;;;;;;;11.83;47.93;96984.41;4843768;29;20140;-76
2021/12/25 00:40:18;;;;;;;2.85;1.27;;;;;;;12.01;47.42;96964.25;4861303;29;20010;-77
2021/12/25 00:42:44;;;;;;;1.67;1.33;;;;;;;12.03;47.03;96956.09;4889853;29;20041;-77
2021/12/25 00:45:25;;;;;;;4.28;2.65;;;;;;;11.78;47.47;96933.84;4875793;29;20445;-77
2021/12/25 00:47:50;;;;;;;2.78;1.90;;;;;;;11.95;47.38;96983.47;4920740;28;20050;-77
2021/12/25 00:50:16;;;;;;;2.25;1.35;;;;;;;11.87;47.38;96943.84;4936337;28;20089;-78
2021/12/25 00:52:42;;;;;;;3.10;2.03;;;;;;;12.05;47.20;96963.03;4936223;28;20063;-77
2021/12/25 00:55:10;;;;;;;5.28;1.63;;;;;;;12.00;47.05;96970.56;4932713;28;20042;-78
2021/12/25 00:57:36;;;;;;;3.83;2.03;;;;;;;12.11;46.84;96964.38;4928445;29;20114;-77
2021/12/25 01:00:09;;;;;;;19.30;2.05;;;;;;;11.96;47.46;96961.06;4940154;28;20031;-77
2021/12/25 01:02:35;;;;;;;2.25;1.70;;;;;;;11.90;47.41;96954.34;4937144;28;20517;-76
2021/12/25 01:05:01;;;;;;;2.00;1.50;;;;;;;11.99;47.08;96954.63;4937023;28;20033;-77
2021/12/25 01:07:26;;;;;;;12.65;1.83;;;;;;;12.05;47.16;96949.63;4930900;28;20046;-75
2021/12/25 01:09:52;;;;;;;1.77;1.10;;;;;;;12.06;47.01;96972.78;4939996;28;20039;-78
2021/12/25 01:12:17;;;;;;;2.45;1.55;;;;;;;11.91;47.13;96960.56;4940136;28;20041;-77
2021/12/25 01:39:39;;;;;;;3.08;1.40;;;;;;;11.86;47.47;96930.59;4956347;29;20073;-80
2021/12/25 01:50:37;;;;;;;3.22;1.90;;;;;;;11.57;48.19;96942.63;4954281;28;20163;-80
2021/12/25 01:53:02;;;;;;;23.00;10.35;;;;;;;11.60;47.92;96942.38;4922096;29;20051;-80
2021/12/25 01:55:30;;;;;;;4.47;1.70;;;;;;;11.62;48.14;96961.91;4940037;29;20043;-80
2021/12/25 01:57:57;;;;;;;5.93;2.33;;;;;;;11.69;48.13;96973.88;4924656;29;20208;-80
2021/12/25 02:00:28;;;;;;;3.00;1.80;;;;;;;11.57;48.41;96958.69;4955307;29;20035;-80
2021/12/25 02:02:55;;;;;;;2.42;1.67;;;;;;;11.62;48.31;96952.03;4922646;29;20043;-80
2021/12/25 02:05:20;;;;;;;3.20;1.60;;;;;;;11.67;48.25;96963.25;4922905;29;20043;-80
2021/12/25 02:07:47;;;;;;;2.08;1.73;;;;;;;11.57;48.67;96954.19;4923017;29;20053;-80
2021/12/25 02:10:14;;;;;;;2.88;1.23;;;;;;;11.41;48.66;96932.25;4922847;29;20039;-80
2021/12/25 02:12:40;;;;;;;2.35;1.25;;;;;;;11.75;48.06;96935.94;4922818;29;20503;-81
2021/12/25 02:15:13;;;;;;;2.10;1.58;;;;;;;11.87;47.54;96937.66;4942709;29;20055;-80
2021/12/25 02:20:30;;;;;;;3.40;1.88;;;;;;;11.47;48.18;96936.28;4941798;29;20058;-78
2021/12/25 02:23:02;;;;;;;4.50;2.33;;;;;;;11.45;48.63;96947.09;4954801;29;20039;-79
2021/12/25 02:25:31;;;;;;;2.13;1.73;;;;;;;11.51;48.44;96948.44;4971561;28;20023;-79
2021/12/25 02:27:57;;;;;;;3.80;2.15;;;;;;;11.78;47.86;96952.59;4973488;28;20031;-79
2021/12/25 02:30:22;;;;;;;6.53;3.78;;;;;;;11.61;48.09;96926.22;4973372;28;20550;-80
2021/12/25 02:32:48;;;;;;;2.15;1.45;;;;;;;11.78;47.77;96930.31;4956101;28;20190;-79
2021/12/25 02:35:14;;;;;;;2.47;1.38;;;;;;;11.76;48.00;96942.97;4956366;28;20426;-79
2021/12/25 02:37:40;;;;;;;3.03;2.10;;;;;;;11.64;48.07;96950.09;4940574;28;20509;-79
2021/12/25 02:40:08;;;;;;;1.90;1.70;;;;;;;11.72;48.27;96995.94;4955864;28;20039;-79
2021/12/25 02:42:35;;;;;;;2.38;1.73;;;;;;;11.56;48.70;96992.69;4942498;28;20046;-80
2021/12/25 02:45:02;;;;;;;3.67;1.70;;;;;;;11.39;49.01;96972.50;4977294;28;20027;-79
2021/12/25 02:47:30;;;;;;;9.80;2.90;;;;;;;11.22;49.23;96964.88;4943752;28;20045;-80
2021/12/25 02:49:56;;;;;;;3.03;1.92;;;;;;;11.19;49.16;96991.88;4976940;28;20138;-79
2021/12/25 02:52:22;;;;;;;13.13;4.75;;;;;;;10.98;49.74;96953.31;4979340;28;20090;-80
2021/12/25 02:54:48;;;;;;;4.30;2.60;;;;;;;11.03;49.45;96969.00;4944495;28;20039;-80
2021/12/25 02:57:14;;;;;;;13.10;5.35;;;;;;;11.31;49.14;96984.75;4944582;28;20474;-79
2021/12/25 02:59:40;;;;;;;7.82;3.85;;;;;;;11.22;49.40;96958.66;4959309;28;20038;-79
2021/12/25 03:02:16;;;;;;;3.58;2.10;;;;;;;11.13;49.50;96970.06;4959379;28;20097;-79
2021/12/25 03:04:45;;;;;;;2.35;1.65;;;;;;;11.31;49.23;96980.25;4943457;28;20027;-79
2021/12/25 03:07:12;;;;;;;10.25;4.65;;;;;;;11.42;49.02;96987.47;4961332;28;20038;-78
2021/12/25 03:09:38;;;;;;;13.57;5.72;;;;;;;11.40;49.03;96990.28;4965527;28;20043;-79
2021/12/25 03:12:06;;;;;;;5.93;3.10;;;;;;;11.32;49.11;96981.94;4945424;28;20046;-80
2021/12/25 03:17:55;;;;;;;12.82;6.63;;;;;;;11.18;49.63;96973.22;4978045;28;20057;-80
2021/12/25 03:20:21;;;;;;;10.00;4.82;;;;;;;11.05;49.53;96973.28;4943616;28;20070;-79
2021/12/25 03:22:46;;;;;;;12.75;6.40;;;;;;;11.12;50.10;97001.31;4959576;28;20038;-80
2021/12/25 03:28:38;;;;;;;2.75;2.08;;;;;;;10.85;50.41;96993.47;4977727;28;20086;-79
2021/12/25 03:31:12;;;;;;;6.88;2.90;;;;;;;10.91;50.26;96994.84;4944124;28;20038;-81
2021/12/25 03:33:37;;;;;;;6.18;4.13;;;;;;;10.88;50.18;97000.41;4958775;28;20031;-81
2021/12/25 03:36:03;;;;;;;4.68;3.00;;;;;;;10.94;49.97;96991.94;4929792;28;20126;-80
2021/12/25 03:38:30;;;;;;;3.55;2.42;;;;;;;11.08;49.88;97017.69;4977134;28;20034;-80
2021/12/25 03:40:57;;;;;;;4.70;2.38;;;;;;;10.95;50.32;97014.22;4959332;28;20088;-81
2021/12/25 03:43:23;;;;;;;4.70;2.65;;;;;;;10.65;50.41;96986.00;4957468;28;20046;-80
2021/12/25 03:45:49;;;;;;;6.95;3.95;;;;;;;10.58;50.83;96989.22;4950396;28;20034;-81
2021/12/25 03:48:43;;;;;;;8.40;4.50;;;;;;;10.60;50.92;97006.88;4965932;28;20050;-80
2021/12/25 03:59:01;;;;;;;5.50;3.67;;;;;;;10.66;50.69;97013.59;4964688;28;20049;-79
2021/12/25 04:01:45;;;;;;;3.97;2.50;;;;;;;10.80;50.17;97010.78;4945422;28;20034;-79
2021/12/25 04:06:46;;;;;;;6.22;3.60;;;;;;;10.94;50.31;97025.88;4942213;29;20023;-79
2021/12/25 04:09:25;;;;;;;5.47;4.05;;;;;;;10.91;50.27;97010.91;4940729;29;20035;-79
2021/12/25 04:11:51;;;;;;;4.05;2.65;;;;;;;10.77;50.37;96994.97;4927094;29;20049;-80
2021/12/25 04:14:17;;;;;;;3.17;2.38;;;;;;;10.75;50.21;97007.59;4928547;29;20043;-79
2021/12/25 04:16:43;;;;;;;4.22;2.58;;;;;;;10.89;50.23;97010.13;4943928;29;20042;-80
2021/12/25 04:19:09;;;;;;;2.95;2.20;;;;;;;10.93;49.94;97013.44;4943424;29;20043;-79
2021/12/25 04:21:46;;;;;;;3.38;2.33;;;;;;;10.94;49.49;97024.06;4942104;29;20114;-80
2021/12/25 04:24:12;;;;;;;3.55;2.40;;;;;;;10.96;49.66;97022.09;4945333;28;20109;-80
2021/12/25 04:26:40;;;;;;;2.97;2.28;;;;;;;11.00;49.99;97037.00;4961477;28;20495;-80
2021/12/25 04:29:20;;;;;;;3.92;2.40;;;;;;;11.03;50.06;97039.44;4962498;28;20624;-81
2021/12/25 05:04:52;;;;;;;3.22;2.42;;;;;;;11.32;49.58;97042.69;4906583;29;20119;-82
2021/12/25 05:10:40;;;;;;;5.93;3.20;;;;;;;11.36;49.54;97053.06;4975017;28;20049;-81
2021/12/25 05:13:05;;;;;;;10.07;3.85;;;;;;;11.39;49.60;97060.88;4941773;28;20038;-80
2021/12/25 05:15:31;;;;;;;7.68;4.32;;;;;;;11.38;49.55;97063.66;4941822;28;20034;-80
2021/12/25 05:17:56;;;;;;;11.35;4.85;;;;;;;11.44;50.63;97055.19;4943588;28;20039;-79
2021/12/25 05:20:25;;;;;;;4.25;2.72;;;;;;;11.36;50.91;97060.22;4942218;28;20039;-80
2021/12/25 05:22:51;;;;;;;8.00;3.65;;;;;;;11.24;50.72;97053.09;4940809;28;20042;-79
2021/12/25 05:25:16;;;;;;;8.27;4.70;;;;;;;11.07;51.82;97070.38;4941554;28;20041;-81
2021/12/25 05:27:42;;;;;;;8.57;4.97;;;;;;;10.96;51.64;97086.34;4932877;29;20055;-80
2021/12/25 05:30:08;;;;;;;7.13;4.82;;;;;;;10.96;51.94;97080.13;4938168;29;20110;-81
2021/12/25 05:32:33;;;;;;;9.23;4.13;;;;;;;10.91;52.02;97071.56;4922510;29;20039;-81
2021/12/25 05:35:14;;;;;;;14.68;8.77;;;;;;;10.86;52.06;97091.47;4938241;29;20046;-80
2021/12/25 05:37:51;;;;;;;13.82;7.32;;;;;;;10.85;52.21;97099.63;4937822;29;20045;-81
2021/12/25 05:40:17;;;;;;;26.80;14.75;;;;;;;10.72;52.70;97088.06;4923079;29;20495;-81
2021/12/25 05:42:43;;;;;;;26.20;17.15;;;;;;;10.67;53.13;97079.50;4921468;29;20106;-81
2021/12/25 05:45:10;;;;;;;30.58;15.23;;;;;;;10.73;53.30;97079.09;4921660;29;20035;-81
2021/12/25 05:47:36;;;;;;;25.77;15.15;;;;;;;10.65;53.64;97092.97;4937491;29;20058;-80
2021/12/25 05:50:02;;;;;;;22.75;12.45;;;;;;;10.68;53.28;97091.91;4934641;28;20161;-81
2021/12/25 05:52:27;;;;;;;26.48;14.48;;;;;;;10.63;53.83;97094.91;4941381;28;20039;-79
2021/12/25 05:54:53;;;;;;;22.85;12.60;;;;;;;10.59;53.61;97087.19;4959744;28;20093;-81
2021/12/25 05:57:27;;;;;;;20.95;9.77;;;;;;;10.68;53.52;97103.47;4959524;28;20047;-83
2021/12/25 05:59:52;;;;;;;10.60;5.93;;;;;;;10.71;53.16;97091.69;4952875;29;20046;-78
2021/12/25 06:02:18;;;;;;;15.63;8.35;;;;;;;10.68;53.56;97105.28;4933453;28;20486;-79
2021/12/25 06:04:44;;;;;;;14.10;6.80;;;;;;;10.62;53.59;97095.00;4940386;28;20097;-79
2021/12/25 06:07:09;;;;;;;13.10;7.20;;;;;;;10.72;53.30;97093.41;4921761;29;20042;-79
2021/12/25 06:09:35;;;;;;;30.80;17.02;;;;;;;10.68;54.64;97102.59;4924829;29;20034;-80
2021/12/25 06:12:01;;;;;;;7.82;4.22;;;;;;;10.77;52.66;97091.25;4921210;29;20133;-80
2021/12/25 06:14:26;;;;;;;97.63;47.85;;;;;;;10.68;54.25;97097.25;4920889;29;20042;-81
2021/12/25 06:16:52;;;;;;;104.28;52.03;;;;;;;10.68;55.07;97102.59;4937750;29;20423;-80
2021/12/25 06:19:18;;;;;;;55.58;30.58;;;;;;;10.69;55.38;97098.97;4950986;28;20053;-81
2021/12/25 06:21:44;;;;;;;65.15;37.28;;;;;;;10.57;55.43;97111.38;4940089;28;20053;-80
2021/12/25 06:24:10;;;;;;;50.47;28.15;;;;;;;10.54;55.83;97111.59;4927114;29;20035;-81
2021/12/25 06:26:36;;;;;;;37.95;20.90;;;;;;;10.52;56.04;97115.34;4937073;29;20031;-81
2021/12/25 06:29:03;;;;;;;34.33;19.15;;;;;;;10.43;57.06;97111.47;4936970;29;20035;-81
2021/12/25 06:31:29;;;;;;;19.65;11.15;;;;;;;10.35;55.67;97116.47;4921819;29;20046;-80
2021/12/25 06:33:55;;;;;;;15.77;8.57;;;;;;;10.40;55.32;97124.19;4939474;29;20337;-81
2021/12/25 06:36:20;;;;;;;9.68;5.90;;;;;;;10.55;55.03;97112.47;4940919;29;20499;-81
2021/12/25 06:38:46;;;;;;;41.72;23.50;;;;;;;10.60;55.48;97121.00;4926193;29;20047;-80
2021/12/25 06:41:12;;;;;;;26.27;16.35;;;;;;;10.63;55.16;97123.47;4924952;29;20055;-81
2021/12/25 06:43:39;;;;;;;19.70;12.02;;;;;;;10.67;54.86;97122.31;4941785;29;20434;-92
2021/12/25 06:46:05;;;;;;;20.85;12.13;;;;;;;10.70;55.11;97130.13;4925943;29;20423;-91
2021/12/25 06:48:34;;;;;;;16.02;9.32;;;;;;;10.76;54.79;97119.00;4925183;29;20042;-91
2021/12/25 06:50:59;;;;;;;15.38;8.48;;;;;;;10.46;55.33;97097.88;4924856;29;20128;-91
2021/12/25 06:53:25;;;;;;;23.17;9.38;;;;;;;10.58;55.44;97114.91;4924785;29;20043;-92
2021/12/25 06:55:51;;;;;;;17.35;9.25;;;;;;;10.66;56.00;97131.28;4925096;29;20035;-92
2021/12/25 06:58:16;;;;;;;25.83;10.20;;;;;;;10.52;56.50;97134.88;4924777;29;20050;-91
2021/12/25 07:00:42;;;;;;;24.48;13.75;;;;;;;10.51;55.67;97133.19;4940873;28;20046;-91
2021/12/25 07:03:35;;;;;;;18.50;8.85;;;;;;;10.70;55.12;97148.84;4959753;28;20042;-94
2021/12/25 07:06:10;;;;;;;16.38;9.30;;;;;;;10.77;55.54;97155.47;4971132;28;20419;-92
2021/12/25 07:08:36;;;;;;;29.77;12.88;;;;;;;10.29;55.90;97101.72;4934522;29;20035;-92
2021/12/25 07:11:02;;;;;;;24.55;11.32;;;;;;;10.53;55.97;97151.78;4928532;28;20031;-92
2021/12/25 07:13:27;;;;;;;15.55;9.73;;;;;;;10.50;55.44;97142.16;4944814;28;20105;-88
2021/12/25 07:15:53;;;;;;;20.95;11.88;;;;;;;10.66;55.60;97164.25;4932701;29;20039;-89
2021/12/25 07:18:19;;;;;;;24.35;13.95;;;;;;;10.60;55.30;97147.75;4927021;29;20514;-91
2021/12/25 07:20:48;;;;;;;42.53;22.42;;;;;;;10.59;54.02;97125.50;4931045;28;20142;-87
2021/12/25 07:23:18;;;;;;;27.15;13.00;;;;;;;11.06;52.69;97135.56;4940182;29;20376;-84
2021/12/25 07:33:04;;;;;;;49.53;24.30;;;;;;;11.39;52.21;97151.91;4940659;28;20057;-91
2021/12/25 07:38:57;;;;;;;25.50;13.73;;;;;;;11.17;52.14;97067.88;4902351;28;20075;-80
2021/12/25 07:41:26;;;;;;;26.40;13.80;;;;;;;11.47;51.71;97118.38;4934653;28;20153;-86
2021/12/25 07:50:36;;;;;;;16.92;9.68;;;;;;;12.07;51.07;97151.41;4919462;29;20633;-88
2021/12/25 07:53:02;;;;;;;10.27;5.13;;;;;;;12.11;49.77;97114.53;4929428;29;20039;-90
2021/12/25 07:58:53;;;;;;;10.05;4.90;;;;;;;11.82;49.76;97057.72;4960026;29;20494;-89
2021/12/25 08:01:19;;;;;;;12.40;5.53;;;;;;;12.02;49.57;97081.22;4944205;28;20070;-91
2021/12/25 08:03:44;;;;;;;14.63;6.50;;;;;;;12.18;49.43;97089.78;4946626;28;20521;-91
2021/12/25 08:06:10;;;;;;;15.45;8.30;;;;;;;12.15;49.69;97081.16;4952670;28;20035;-92
2021/12/25 08:08:36;;;;;;;3.75;2.50;;;;;;;12.21;48.96;97061.91;4937505;29;20039;-93
2021/12/25 08:11:01;;;;;;;7.07;4.20;;;;;;;12.52;48.51;97094.28;4930108;29;20043;-92
2021/12/25 08:13:27;;;;;;;8.50;4.53;;;;;;;12.64;48.33;97059.47;4949274;28;20031;-92
2021/12/25 08:15:53;;;;;;;7.70;4.60;;;;;;;13.12;47.85;97108.47;4949891;28;20137;-89
2021/12/25 08:21:42;;;;;;;23.55;14.45;;;;;;;12.92;47.86;97075.94;4970227;28;20042;-79
2021/12/25 08:24:08;;;;;;;25.88;14.52;;;;;;;13.18;47.90;97124.94;4967108;28;20054;-80
2021/12/25 08:26:33;;;;;;;32.08;16.85;;;;;;;13.28;48.34;97142.06;4941350;29;20075;-79
2021/12/25 08:29:03;;;;;;;19.75;10.63;;;;;;;13.16;47.94;97116.16;4944125;28;20038;-94
2021/12/25 08:31:28;;;;;;;21.60;10.43;;;;;;;13.18;47.93;97116.03;4932888;29;20047;-93
2021/12/25 08:33:54;;;;;;;15.10;7.10;;;;;;;13.50;47.13;97144.72;4931822;29;20420;-92
2021/12/25 08:36:20;;;;;;;11.40;7.07;;;;;;;13.61;47.13;97143.00;4934044;29;20122;-93
2021/12/25 08:49:52;;;;;;;14.35;7.00;;;;;;;13.92;45.79;97096.53;4978974;28;20118;-93
2021/12/25 08:52:19;;;;;;;14.35;6.53;;;;;;;13.74;45.72;97057.72;4946458;28;20053;-90
2021/12/25 08:55:14;;;;;;;17.58;6.95;;;;;;;14.28;45.39;97132.94;4948440;28;20022;-92
2021/12/25 08:58:08;;;;;;;10.00;5.45;;;;;;;14.34;45.00;97108.25;4940726;28;20511;-93
2021/12/25 09:00:42;;;;;;;11.40;5.82;;;;;;;13.90;45.20;97044.72;4945741;28;20038;-91
2021/12/25 09:03:16;;;;;;;13.05;5.30;;;;;;;13.79;45.38;97023.22;4930407;29;20032;-90
2021/12/25 09:06:00;;;;;;;15.07;7.65;;;;;;;13.82;45.49;97022.97;4931452;29;20035;-92
2021/12/25 09:11:47;;;;;;;11.27;6.50;;;;;;;13.86;45.69;97062.06;4925462;29;20504;-91
2021/12/25 09:14:26;;;;;;;;;;;;;;;14.17;45.50;97090.81;4929330;29;20054;-91
2021/12/25 09:17:08;;;;;;;11.95;7.03;;;;;;;13.79;45.47;97023.22;4944739;29;19918;-92
2021/12/25 09:19:55;;;;;;;12.73;7.40;;;;;;;13.85;45.36;97025.41;4947077;29;20070;-93
2021/12/25 09:22:34;;;;;;;6.95;3.28;;;;;;;14.17;45.02;97088.13;4925795;29;20050;-90
2021/12/25 09:25:03;;;;;;;8.40;4.13;;;;;;;14.10;44.64;97035.81;4928645;29;20035;-91
2021/12/25 09:31:23;;;;;;;13.00;3.63;;;;;;;14.65;43.64;97007.78;4961994;29;20086;-91
2021/12/25 09:33:59;;;;;;;12.77;6.95;;;;;;;14.78;43.48;97007.56;4956104;29;20031;-90
2021/12/25 09:36:42;;;;;;;;;;;;;;;;;;;;;
2021/12/25 09:39:36;;;;;;;12.77;6.70;;;;;;;14.51;43.87;97003.59;4961168;28;20161;-91
2021/12/25 09:42:04;;;;;;;16.73;7.70;;;;;;;14.67;44.38;97072.25;4956367;28;20042;-90
2021/12/25 09:44:56;;;;;;;13.43;6.70;;;;;;;14.02;44.40;97020.34;4944703;28;20038;-94
2021/12/25 09:47:44;;;;;;;;;;;;;;;;;;;;;
2021/12/25 09:54:05;;;;;;;24.88;12.35;;;;;;;13.87;45.33;97040.44;4922721;29;20044;-92
2021/12/25 09:56:30;;;;;;;;;;;;;;;14.10;45.13;97079.72;4911083;29;20101;-92
2021/12/25 09:58:56;;;;;;;8.25;4.35;;;;;;;13.74;45.29;97033.53;4933119;29;19982;-93
2021/12/25 10:04:48;;;;;;;16.42;7.47;;;;;;;13.54;45.47;96998.41;4967852;29;20067;-93
2021/12/25 10:07:29;;;;;;;21.00;11.10;;;;;;;13.76;46.08;97059.28;4936342;29;20055;-91
2021/12/25 10:10:10;;;;;;;17.88;8.93;;;;;;;13.85;45.79;97076.50;4934162;29;20041;-93
2021/12/25 10:16:20;;;;;;;17.10;7.72;;;;;;;13.39;46.22;96999.66;4955629;28;20077;-80
2021/12/25 10:18:46;;;;;;;20.35;6.78;;;;;;;13.78;46.09;97038.50;4928187;29;20878;-80
2021/12/25 10:21:31;;;;;;;27.55;12.80;;;;;;;13.92;45.61;97045.44;4907168;29;20427;-80
2021/12/25 10:24:15;;;;;;;12.98;8.15;;;;;;;14.00;45.14;97000.78;4939751;29;20031;-92
2021/12/25 10:26:44;;;;;;;7.70;4.68;;;;;;;14.50;44.70;97055.72;4927559;29;20061;-90
2021/12/25 10:29:28;;;;;;;11.23;4.25;;;;;;;14.88;44.27;97052.41;4929317;29;20039;-92
2021/12/25 10:31:58;;;;;;;13.90;7.68;;;;;;;14.92;43.47;97023.38;4927579;29;20031;-90
2021/12/25 10:34:29;;;;;;;10.73;4.35;;;;;;;15.03;42.78;97005.28;4934290;29;20031;-90
2021/12/25 10:37:07;;;;;;;8.93;4.40;;;;;;;15.27;42.51;97042.66;4934443;29;20038;-91
2021/12/25 10:39:34;;;;;;;15.50;9.52;;;;;;;14.31;43.62;96972.13;4936666;29;20040;-92
2021/12/25 10:42:25;;;;;;;24.10;11.65;;;;;;;14.21;44.25;96979.31;4936019;29;20058;-92
2021/12/25 10:44:58;;;;;;;17.80;8.68;;;;;;;14.29;44.25;96992.09;4951839;29;20074;-93
2021/12/25 10:47:26;;;;;;;22.58;11.13;;;;;;;14.81;44.18;97036.91;4935175;29;20035;-91
2021/12/25 10:50:25;;;;;;;29.88;13.82;;;;;;;14.55;45.10;96982.66;4948767;28;20049;-94
2021/12/25 10:53:10;;;;;;;9.23;6.05;;;;;;;14.82;43.20;97007.16;4940120;28;20035;-91
2021/12/25 10:55:37;;;;;;;19.25;10.23;;;;;;;14.89;43.33;96981.38;4973822;28;20035;-93
2021/12/25 10:58:17;;;;;;;9.23;5.82;;;;;;;14.89;43.29;96967.09;4970285;28;20031;-93
2021/12/25 11:00:49;;;;;;;7.57;4.63;;;;;;;15.33;42.54;96966.66;4973101;28;20046;-93
2021/12/25 11:03:24;;;;;;;6.97;3.90;;;;;;;15.68;41.09;96944.59;4956198;28;20046;-93
2021/12/25 11:05:52;;;;;;;8.73;4.80;;;;;;;16.11;40.77;96946.88;4975460;28;20035;-92
2021/12/25 11:08:24;;;;;;;11.13;5.80;;;;;;;16.29;40.41;96934.34;4960023;28;20110;-93
2021/12/25 11:11:12;;;;;;;31.95;17.98;;;;;;;15.94;40.48;96923.28;4958571;28;20457;-92
2021/12/25 11:13:52;;;;;;;18.95;11.15;;;;;;;15.84;41.27;96971.03;4952171;28;20106;-92
2021/12/25 11:16:53;;;;;;;10.90;3.40;;;;;;;15.69;41.81;96994.81;4953884;28;20061;-90
2021/12/25 11:19:59;;;;;;;16.13;8.80;;;;;;;15.73;42.21;96994.41;4947283;28;20412;-89
2021/12/25 11:22:50;;;;;;;10.93;5.70;;;;;;;15.92;41.55;96988.19;4922381;29;20051;-81
2021/12/25 11:25:37;;;;;;;;;;;;;;;;;;;;;
2021/12/25 11:28:06;;;;;;;8.13;3.97;;;;;;;16.58;40.62;96972.94;4916530;29;20044;-83
2021/12/25 11:30:35;;;;;;;5.72;3.45;;;;;;;18.83;36.79;96949.31;4900089;29;20047;-85
2021/12/25 11:33:00;;;;;;;12.45;4.97;;;;;;;20.85;33.47;96949.75;4918116;29;20411;-80
2021/12/25 11:35:27;;;;;;;14.32;7.88;;;;;;;20.83;33.31;96945.50;4908313;29;20040;-80
2021/12/25 11:37:55;;;;;;;6.72;3.50;;;;;;;19.83;33.97;96943.13;4907624;29;20075;-89
2021/12/25 11:40:23;;;;;;;7.65;4.50;;;;;;;18.98;35.23;96943.31;4895661;29;20050;-85
2021/12/25 11:42:56;;;;;;;17.58;5.60;;;;;;;18.34;36.54;96945.41;4912958;29;20455;-84
2021/12/25 11:45:27;;;;;;;8.35;5.22;;;;;;;17.43;38.05;96945.69;4890735;29;20040;-85
2021/12/25 11:47:57;;;;;;;7.88;5.00;;;;;;;16.84;39.42;96947.97;4886775;29;20558;-86
2021/12/25 11:50:31;;;;;;;7.97;4.88;;;;;;;16.33;40.28;96941.16;4894946;29;20131;-86
2021/12/25 11:53:25;;;;;;;8.60;4.55;;;;;;;16.27;40.30;96942.56;4918146;29;20043;-86
2021/12/25 11:58:49;;;;;;;12.05;6.82;;;;;;;16.25;40.85;96933.78;4931359;29;20047;-80
2021/12/25 12:01:38;;;;;;;10.50;5.03;;;;;;;16.36;40.57;96932.78;4896174;29;20040;-79
2021/12/25 12:04:10;;;;;;;6.90;3.97;;;;;;;16.32;40.40;96936.75;4899294;29;20090;-80
2021/12/25 12:06:45;;;;;;;8.10;5.47;;;;;;;16.40;40.66;96936.84;4905497;29;20079;-80
2021/12/25 12:09:21;;;;;;;5.72;3.50;;;;;;;16.36;40.16;96930.06;4926363;29;20043;-80
2021/12/25 12:11:49;;;;;;;6.40;4.03;;;;;;;16.32;40.30;96927.78;4914762;29;20043;-81
2021/12/25 12:14:15;;;;;;;9.32;5.75;;;;;;;16.48;40.33;96938.84;4887756;29;20042;-81
2021/12/25 12:16:43;;;;;;;11.73;7.05;;;;;;;16.47;40.07;96931.72;4917701;29;20142;-84
2021/12/25 12:19:36;;;;;;;10.15;6.65;;;;;;;16.55;40.36;96943.53;4895360;29;20040;-81
2021/12/25 12:22:23;;;;;;;22.35;12.15;;;;;;;16.64;40.07;96944.50;4931974;29;20479;-80
2021/12/25 12:27:47;;;;;;;16.98;5.22;;;;;;;16.40;40.35;96930.59;4931493;29;20520;-81
2021/12/25 12:30:34;;;;;;;8.73;5.20;;;;;;;16.38;40.64;96932.59;4891803;29;20050;-81
2021/12/25 12:33:22;;;;;;;20.25;11.02;;;;;;;16.34;40.73;96937.44;4900733;29;20047;-81
2021/12/25 12:35:50;;;;;;;11.25;6.78;;;;;;;16.28;40.68;96927.22;4914098;28;20042;-80
2021/12/25 12:38:44;;;;;;;26.60;11.82;;;;;;;16.23;40.85;96941.16;4923699;28;20042;-81
2021/12/25 12:41:12;;;;;;;17.25;10.38;;;;;;;16.30;40.79;96941.44;4936450;28;20113;-80
2021/12/25 12:44:08;;;;;;;15.18;8.65;;;;;;;16.41;40.69;96943.09;4934450;29;20129;-81
2021/12/25 12:46:55;;;;;;;22.02;13.02;;;;;;;16.34;41.86;96945.53;4924375;29;20051;-83
2021/12/25 12:49:24;;;;;;;21.98;9.48;;;;;;;16.02;41.71;96935.09;4944695;28;20495;-86
2021/12/25 12:52:09;;;;;;;28.08;10.65;;;;;;;16.11;41.80;96927.97;4941765;29;20059;-83
2021/12/25 12:54:48;;;;;;;21.77;11.25;;;;;;;16.07;41.74;96938.19;4970130;28;20495;-87
2021/12/25 12:57:41;;;;;;;11.32;7.28;;;;;;;15.80;42.04;96931.81;4933418;28;20043;-84
2021/12/25 13:00:20;;;;;;;6.22;3.80;;;;;;;15.66;41.60;96933.94;4939551;28;20043;-82
2021/12/25 13:02:52;;;;;;;6.93;3.78;;;;;;;15.67;41.86;96949.16;4951953;28;20034;-83
2021/12/25 13:05:21;;;;;;;6.63;4.18;;;;;;;15.49;42.21;96929.28;4928069;28;20467;-82
2021/12/25 13:07:48;;;;;;;10.13;4.90;;;;;;;15.50;42.07;96944.47;4931222;28;20093;-84
2021/12/25 13:10:27;;;;;;;10.82;6.60;;;;;;;15.51;42.06;96946.13;4937758;28;20038;-84
2021/12/25 13:13:13;;;;;;;5.80;3.58;;;;;;;15.51;41.95;96938.06;4939947;28;20039;-84
2021/12/25 13:15:40;;;;;;;9.73;5.97;;;;;;;15.61;42.04;96944.31;4926923;28;20081;-82
2021/12/25 13:18:12;;;;;;;18.55;8.30;;;;;;;15.69;42.07;96949.00;4926858;28;20048;-80
2021/12/25 13:20:49;;;;;;;16.30;7.70;;;;;;;15.83;42.28;96956.69;4928644;29;20049;-80
2021/12/25 13:23:16;;;;;;;13.18;6.75;;;;;;;15.93;41.87;96949.44;4935233;28;20047;-83
2021/12/25 13:26:03;;;;;;;11.30;3.55;;;;;;;15.91;41.10;96934.38;4939048;28;20558;-83
2021/12/25 13:28:35;;;;;;;16.02;6.97;;;;;;;15.83;41.43;96942.34;4938289;28;20101;-84
2021/12/25 13:31:03;;;;;;;8.85;5.13;;;;;;;15.85;41.17;96945.72;4941243;29;20031;-83
2021/12/25 13:33:33;;;;;;;13.27;7.07;;;;;;;16.00;41.11;96952.41;4942081;29;20530;-84
2021/12/25 13:36:08;;;;;;;19.40;9.65;;;;;;;15.94;41.14;96934.94;4919722;29;20499;-82
2021/12/25 13:38:55;;;;;;;49.13;23.30;;;;;;;15.96;41.29;96932.13;4928267;28;20034;-84
2021/12/25 13:41:33;;;;;;;6.82;3.30;;;;;;;16.55;39.83;96934.59;4921828;28;20507;-83
2021/12/25 13:44:27;;;;;;;5.60;3.50;;;;;;;17.44;38.28;96916.81;4927879;28;20093;-83
2021/12/25 13:47:15;;;;;;;3.97;2.53;;;;;;;18.28;36.37;96900.00;4959716;28;20043;-83
2021/12/25 13:49:47;;;;;;;8.73;3.75;;;;;;;18.41;36.42;96897.72;4950663;28;20059;-84
2021/12/25 13:52:43;;;;;;;14.63;7.82;;;;;;;18.06;37.29;96902.34;4951147;28;20513;-84
2021/12/25 13:55:30;;;;;;;12.20;7.40;;;;;;;17.51;38.46;96899.78;4934170;29;20043;-83
2021/12/25 13:58:07;;;;;;;24.27;12.93;;;;;;;16.93;38.90;96915.53;4931158;28;20045;-83
2021/12/25 14:00:54;;;;;;;22.60;11.70;;;;;;;17.24;38.71;96932.28;4951593;28;20430;-84
2021/12/25 14:03:25;;;;;;;20.67;11.27;;;;;;;17.70;37.15;96894.28;4935043;28;20121;-85
2021/12/25 14:05:55;;;;;;;15.68;8.38;;;;;;;17.74;37.36;96892.97;4937893;28;20039;-84
2021/12/25 14:08:25;;;;;;;12.25;8.27;;;;;;;17.81;37.41;96907.56;4936735;28;20373;-84
2021/12/25 14:10:58;;;;;;;32.05;14.45;;;;;;;17.79;38.25;96923.09;4939024;28;20516;-83
2021/12/25 14:13:26;;;;;;;33.72;18.70;;;;;;;17.15;39.04;96923.25;4937860;28;20046;-84
2021/12/25 14:15:56;;;;;;;36.15;19.17;;;;;;;16.70;40.07;96936.66;4947467;28;20502;-80
2021/12/25 14:18:29;;;;;;;32.80;18.52;;;;;;;16.32;41.08;96943.97;4941087;28;20054;-82
2021/12/25 14:20:55;;;;;;;51.03;25.77;;;;;;;15.92;41.82;96941.47;4931695;28;20125;-85
2021/12/25 14:23:24;;;;;;;48.08;24.40;;;;;;;15.58;42.55;96935.66;4925221;28;20122;-84
2021/12/25 14:25:58;;;;;;;54.72;23.98;;;;;;;15.41;43.60;96956.00;4934817;28;20125;-86
2021/12/25 14:28:32;;;;;;;55.63;29.23;;;;;;;15.02;44.24;96954.22;4946950;28;20066;-85